Time;durP1;ratioP1;P1;durP2;ratioP2;P2;SDS_P1;SDS_P2;PMS_P1;PMS_P2;Temp;Humidity;BMP_temperature;BMP_pressure;BME280_temperature;BME280_humidity;BME280_pressure;Samples;Min_cycle;Max_cycle;Signal;HPM_P1;HPM_P2
2023/06/11 00:00:25;;;;;;;6.55;5.88;;;19.20;99.90;;;;;;5104702;28;20036;-75
2023/06/11 00:02:54;;;;;;;6.78;5.97;;;19.20;99.90;;;;;;5104942;28;20031;-75
2023/06/11 00:05:27;;;;;;;6.88;6.20;;;19.20;99.90;;;;;;5103787;28;20392;-75
2023/06/11 00:07:55;;;;;;;7.13;6.15;;;19.20;99.90;;;;;;5106376;28;20946;-78
2023/06/11 00:10:22;;;;;;;7.70;5.85;;;19.20;99.90;;;;;;5101006;27;20042;-76
2023/06/11 00:12:48;;;;;;;7.10;6.40;;;19.20;99.90;;;;;;5101787;27;20028;-75
2023/06/11 00:15:14;;;;;;;7.38;6.68;;;19.20;99.90;;;;;;5110471;28;20036;-77
2023/06/11 00:17:41;;;;;;;9.43;6.25;;;19.20;99.90;;;;;;5111128;28;20027;-75
2023/06/11 00:20:11;;;;;;;7.10;6.00;;;19.20;99.90;;;;;;5103585;28;20391;-74
2023/06/11 00:22:40;;;;;;;7.13;5.82;;;19.20;99.90;;;;;;5110874;28;20039;-75
2023/06/11 00:25:07;;;;;;;8.93;6.27;;;19.10;99.90;;;;;;5111331;28;20032;-74
2023/06/11 00:27:35;;;;;;;8.02;7.28;;;19.10;99.90;;;;;;5110286;28;20276;-75
2023/06/11 00:30:04;;;;;;;10.98;6.47;;;19.00;99.90;;;;;;5075870;28;20046;-74
2023/06/11 00:32:33;;;;;;;6.82;6.13;;;19.00;99.90;;;;;;5107313;28;20063;-76
2023/06/11 00:34:59;;;;;;;7.60;6.80;;;19.00;99.90;;;;;;5102810;28;20460;-74
2023/06/11 00:37:25;;;;;;;7.30;6.60;;;18.90;99.90;;;;;;5111546;28;20019;-75
2023/06/11 00:39:51;;;;;;;8.00;7.22;;;18.90;99.90;;;;;;5110300;28;20056;-74
2023/06/11 00:42:19;;;;;;;7.80;7.00;;;18.80;99.90;;;;;;5111581;28;20045;-75
2023/06/11 00:44:46;;;;;;;7.53;6.78;;;18.70;99.90;;;;;;5110911;28;20028;-75
2023/06/11 00:47:16;;;;;;;8.73;7.47;;;18.70;99.90;;;;;;5103208;28;20733;-75
2023/06/11 00:49:43;;;;;;;7.97;7.15;;;18.60;99.90;;;;;;5098514;28;20533;-76
2023/06/11 00:52:13;;;;;;;8.40;7.30;;;18.60;99.90;;;;;;5102152;28;20039;-75
2023/06/11 00:54:39;;;;;;;9.15;7.30;;;18.60;99.90;;;;;;5115455;28;20495;-75
2023/06/11 00:57:06;;;;;;;7.85;7.15;;;18.60;99.90;;;;;;5093210;28;20047;-76
2023/06/11 00:59:34;;;;;;;7.68;6.97;;;18.70;99.90;;;;;;5110140;28;20491;-75
2023/06/11 01:02:09;;;;;;;9.82;7.55;;;18.70;99.90;;;;;;5111336;28;20028;-75
2023/06/11 01:04:39;;;;;;;8.23;7.47;;;18.70;99.90;;;;;;5109760;28;20023;-75
2023/06/11 01:07:07;;;;;;;7.65;6.93;;;18.70;99.90;;;;;;5107369;28;20061;-75
2023/06/11 01:09:33;;;;;;;9.30;7.40;;;18.60;99.90;;;;;;5080331;28;20035;-75
2023/06/11 01:11:59;;;;;;;8.02;7.22;;;18.60;99.90;;;;;;5098761;27;20058;-77
2023/06/11 01:14:25;;;;;;;9.05;7.40;;;18.60;99.90;;;;;;5100920;27;20107;-76
2023/06/11 01:17:04;;;;;;;7.97;7.00;;;18.60;99.90;;;;;;5109117;27;20036;-75
2023/06/11 01:19:33;;;;;;;7.32;6.68;;;18.50;99.90;;;;;;5105372;27;20028;-79
2023/06/11 01:22:09;;;;;;;7.82;7.13;;;18.40;99.90;;;;;;5101681;27;20038;-75
2023/06/11 01:25:07;;;;;;;9.90;6.82;;;18.30;99.90;;;;;;5101240;27;20451;-76
2023/06/11 01:28:04;;;;;;;8.10;7.30;;;18.30;99.90;;;;;;5050429;27;20040;-75
2023/06/11 01:30:32;;;;;;;8.27;7.57;;;18.20;99.90;;;;;;5104393;28;20059;-77
2023/06/11 01:33:00;;;;;;;7.13;6.43;;;18.10;99.90;;;;;;5107026;28;20115;-75
2023/06/11 01:35:27;;;;;;;9.13;7.85;;;18.10;99.90;;;;;;5114567;28;20031;-75
2023/06/11 01:37:55;;;;;;;9.00;7.63;;;18.00;99.90;;;;;;5114276;28;20015;-75
2023/06/11 01:40:25;;;;;;;8.35;7.45;;;18.00;99.90;;;;;;5114519;28;20039;-75
2023/06/11 01:42:51;;;;;;;;;;;18.00;99.90;;;;;;5104511;27;20453;-75
2023/06/11 01:45:18;;;;;;;8.18;7.38;;;18.00;99.90;;;;;;5109701;27;19994;-75
2023/06/11 01:47:48;;;;;;;9.18;7.45;;;17.90;99.90;;;;;;5113852;28;20027;-75
2023/06/11 01:50:14;;;;;;;;;;;17.90;99.90;;;;;;5114488;28;20383;-75
2023/06/11 01:52:40;;;;;;;8.18;7.18;;;17.80;99.90;;;;;;5113836;28;19923;-75
2023/06/11 01:55:10;;;;;;;8.35;7.55;;;;;;;;;;5113722;28;20024;-76
2023/06/11 01:57:40;;;;;;;8.48;7.68;;;;;;;;;;5113464;28;20026;-76
2023/06/11 02:00:12;;;;;;;;;;;;;;;;;;5114339;28;20113;-76
2023/06/11 02:02:40;;;;;;;8.88;8.05;;;;;;;;;;5104589;27;19954;-77
2023/06/11 02:05:07;;;;;;;8.23;7.35;;;;;;;;;;5113566;28;20019;-76
2023/06/11 02:07:33;;;;;;;8.13;7.43;;;;;;;;;;5113402;28;20451;-76
2023/06/11 02:09:59;;;;;;;9.18;8.27;;;17.60;99.90;;;;;;5110356;28;20028;-75
2023/06/11 02:12:24;;;;;;;8.80;7.45;;;17.60;99.90;;;;;;5109475;28;20357;-76
2023/06/11 02:14:50;;;;;;;9.07;7.82;;;17.60;99.90;;;;;;5111366;28;20476;-75
2023/06/11 02:17:18;;;;;;;9.20;8.27;;;;;;;;;;5113942;28;20437;-75
2023/06/11 02:19:44;;;;;;;8.85;7.95;;;;;;;;;;5103895;28;20111;-75
2023/06/11 02:22:10;;;;;;;8.57;7.78;;;;;;;;;;5099134;28;20095;-75
2023/06/11 02:24:36;;;;;;;8.27;7.38;;;;;;;;;;5108708;28;20044;-75
2023/06/11 02:27:02;;;;;;;8.70;7.82;;;;;;;;;;5113544;28;20596;-75
2023/06/11 02:29:28;;;;;;;7.93;7.03;;;;;;;;;;5112195;28;20041;-75
2023/06/11 02:31:54;;;;;;;9.43;8.10;;;;;;;;;;5113043;28;20372;-75
2023/06/11 02:34:20;;;;;;;11.98;7.65;;;;;;;;;;5112896;28;20388;-74
2023/06/11 02:36:46;;;;;;;8.60;7.40;;;;;;;;;;5112890;28;20024;-75
2023/06/11 02:39:12;;;;;;;8.73;7.82;;;;;;;;;;5100868;27;20110;-76
2023/06/11 02:41:38;;;;;;;8.57;7.78;;;;;;;;;;5093720;28;20442;-75
2023/06/11 02:44:04;;;;;;;8.10;7.28;;;;;;;;;;5112500;28;20070;-75
2023/06/11 02:46:30;;;;;;;8.38;7.55;;;;;;;;;;5111399;28;20048;-77
2023/06/11 02:48:56;;;;;;;8.68;7.88;;;;;;;;;;5111219;28;20046;-75
2023/06/11 02:51:22;;;;;;;7.90;7.10;;;;;;;;;;5113328;28;20031;-76
2023/06/11 02:53:48;;;;;;;8.30;7.43;;;;;;;;;;5111386;28;20085;-74
2023/06/11 02:56:14;;;;;;;8.32;7.53;;;;;;;;;;5113256;28;20031;-75
2023/06/11 02:58:40;;;;;;;7.93;7.22;;;;;;;;;;5104427;28;20028;-76
2023/06/11 03:01:06;;;;;;;8.38;7.57;;;;;;;;;;5098167;27;20038;-76
2023/06/11 03:03:32;;;;;;;9.50;7.95;;;;;;;;;;5103025;27;20092;-77
2023/06/11 03:05:58;;;;;;;8.43;7.53;;;;;;;;;;5110107;28;20460;-75
2023/06/11 03:08:24;;;;;;;9.48;7.90;;;;;;;;;;5112710;28;20034;-75
2023/06/11 03:10:50;;;;;;;8.55;7.68;;;;;;;;;;5105654;28;20020;-77
2023/06/11 03:13:16;;;;;;;9.25;8.35;;;;;;;;;;5112597;28;20027;-75
2023/06/11 03:15:42;;;;;;;8.88;7.60;;;;;;;;;;5111460;28;20103;-75
2023/06/11 03:18:08;;;;;;;8.40;7.60;;;;;;;;;;5113279;28;20027;-75
2023/06/11 03:20:34;;;;;;;9.13;7.68;;;;;;;;;;5090787;27;20062;-75
2023/06/11 03:23:00;;;;;;;8.95;7.50;;;;;;;;;;5112476;28;20047;-75
2023/06/11 03:25:26;;;;;;;8.80;8.00;;;;;;;;;;5112288;28;20461;-75
2023/06/11 03:27:52;;;;;;;7.78;7.18;;;;;;;;;;5108196;28;20024;-75
2023/06/11 03:30:18;;;;;;;8.55;7.00;;;;;;;;;;5104639;28;20495;-75
2023/06/11 03:32:44;;;;;;;9.82;7.43;;;;;;;;;;5107092;28;20027;-75
2023/06/11 03:35:10;;;;;;;10.65;8.30;;;;;;;;;;5098075;27;20035;-76
2023/06/11 03:37:36;;;;;;;8.20;7.40;;;;;;;;;;5096999;27;20016;-75
2023/06/11 03:40:02;;;;;;;9.02;7.75;;;;;;;;;;5100438;28;20496;-75
2023/06/11 03:42:31;;;;;;;8.07;7.38;;;;;;;;;;5111931;28;20043;-77
2023/06/11 03:44:57;;;;;;;8.73;7.28;;;;;;;;;;5111737;28;20019;-75
2023/06/11 03:47:23;;;;;;;7.78;6.97;;;;;;;;;;5111309;28;20058;-75
2023/06/11 03:49:50;;;;;;;8.50;7.60;;;;;;;;;;5111217;28;20098;-75
2023/06/11 03:52:16;;;;;;;8.20;7.30;;;;;;;;;;5112320;28;20051;-75
2023/06/11 03:54:42;;;;;;;8.07;7.32;;;;;;;;;;5110606;28;20542;-75
2023/06/11 03:57:08;;;;;;;9.55;8.05;;;;;;;;;;5095202;27;20023;-76
2023/06/11 03:59:34;;;;;;;8.45;7.65;;;;;;;;;;5105958;28;20495;-76
2023/06/11 04:02:00;;;;;;;8.18;7.38;;;;;;;;;;5111251;28;20101;-76
2023/06/11 04:04:26;;;;;;;7.70;7.00;;;;;;;;;;5116237;27;20051;-76
2023/06/11 04:06:53;;;;;;;8.27;7.55;;;;;;;;;;5091928;28;20376;-75
2023/06/11 04:09:19;;;;;;;8.07;6.75;;;;;;;;;;5109222;28;20034;-76
2023/06/11 04:11:45;;;;;;;7.07;6.47;;;;;;;;;;5110769;28;20035;-74
2023/06/11 04:14:11;;;;;;;7.53;6.82;;;;;;;;;;5102332;27;20427;-75
2023/06/11 04:16:37;;;;;;;7.03;6.32;;;;;;;;;;5108937;28;20015;-75
2023/06/11 04:19:03;;;;;;;7.90;7.15;;;;;;;;;;5111023;28;20027;-75
2023/06/11 04:21:29;;;;;;;7.82;7.05;;;;;;;;;;5111224;28;20504;-78
2023/06/11 04:23:55;;;;;;;9.18;7.85;;;;;;;;;;5111410;28;20030;-75
2023/06/11 04:26:23;;;;;;;7.53;6.78;;;;;;;;;;5110202;28;20403;-75
2023/06/11 04:28:50;;;;;;;7.70;7.00;;;;;;;;;;5109986;28;20055;-75
2023/06/11 04:31:16;;;;;;;6.97;6.28;;;;;;;;;;5096484;28;20147;-75
2023/06/11 04:33:42;;;;;;;7.72;7.03;;;;;;;;;;5098534;28;20019;-75
2023/06/11 04:36:09;;;;;;;8.05;7.35;;;;;;;;;;5107104;28;20020;-75
2023/06/11 04:38:36;;;;;;;7.65;6.95;;;;;;;;;;5109954;28;20107;-75
2023/06/11 04:41:02;;;;;;;8.05;7.30;;;;;;;;;;5111930;28;20028;-75
2023/06/11 04:43:33;;;;;;;7.00;6.40;;;;;;;;;;5111224;28;20557;-77
2023/06/11 04:45:59;;;;;;;8.73;7.82;;;;;;;;;;5113496;28;20093;-75
2023/06/11 04:48:27;;;;;;;8.45;7.47;;;;;;;;;;5115163;28;20016;-75
2023/06/11 04:50:54;;;;;;;8.27;7.47;;;;;;;;;;5114993;28;20055;-75
2023/06/11 04:53:24;;;;;;;8.02;7.03;;;;;;;;;;5111663;27;20023;-75
2023/06/11 04:55:51;;;;;;;7.22;6.63;;;;;;;;;;5114535;28;20022;-75
2023/06/11 04:58:20;;;;;;;8.48;6.70;;;;;;;;;;5107449;28;20024;-75
2023/06/11 05:00:47;;;;;;;7.23;6.53;;;;;;;;;;5104304;27;20819;-76
2023/06/11 05:03:13;;;;;;;7.35;6.75;;;;;;;;;;5101345;27;20026;-75
2023/06/11 05:05:39;;;;;;;8.07;7.03;;;;;;;;;;5102115;27;20024;-76
2023/06/11 05:08:05;;;;;;;7.75;6.93;;;;;;;;;;5103500;27;20093;-75
2023/06/11 05:10:31;;;;;;;7.53;6.82;;;;;;;;;;5103560;27;20027;-77
2023/06/11 05:12:57;;;;;;;8.57;7.28;;;;;;;;;;5108504;28;20027;-75
2023/06/11 05:15:23;;;;;;;9.40;7.30;;;;;;;;;;5096200;28;20034;-76
2023/06/11 05:17:49;;;;;;;10.15;7.55;;;;;;;;;;5114613;28;20087;-75
2023/06/11 05:20:15;;;;;;;7.25;6.25;;;;;;;;;;5114694;28;20035;-75
2023/06/11 05:22:41;;;;;;;6.88;6.28;;;;;;;;;;5114338;28;20023;-75
2023/06/11 05:25:08;;;;;;;6.90;6.32;;;;;;;;;;5114023;28;20039;-75
2023/06/11 05:27:36;;;;;;;7.05;6.35;;;;;;;;;;5111303;27;20094;-75
2023/06/11 05:30:02;;;;;;;7.30;6.32;;;;;;;;;;5108296;27;20055;-77
2023/06/11 05:32:31;;;;;;;7.28;6.53;;;;;;;;;;5103340;27;20635;-77
2023/06/11 05:34:57;;;;;;;7.22;6.05;;;;;;;;;;5111443;27;20099;-75
2023/06/11 05:37:23;;;;;;;7.10;6.18;;;;;;;;;;5115072;28;20084;-75
2023/06/11 05:39:50;;;;;;;6.32;5.72;;;;;;;;;;5113687;28;20023;-75
2023/06/11 05:42:16;;;;;;;6.45;5.80;;;;;;;;;;5114751;28;20020;-75
2023/06/11 05:44:42;;;;;;;6.90;5.55;;;;;;;;;;5113645;28;20372;-75
2023/06/11 05:47:08;;;;;;;7.10;5.63;;;;;;;;;;5114130;28;20048;-75
2023/06/11 05:49:35;;;;;;;7.38;6.47;;;;;;;;;;5109130;28;20038;-77
2023/06/11 05:52:01;;;;;;;6.43;5.82;;;;;;;;;;5108134;27;20078;-76
2023/06/11 05:54:27;;;;;;;6.65;5.28;;;;;;;;;;5113787;28;20104;-79
2023/06/11 05:56:53;;;;;;;7.43;6.63;;;;;;;;;;5108886;28;20019;-75
2023/06/11 05:59:19;;;;;;;8.30;6.43;;;;;;;;;;5114727;28;20031;-75
2023/06/11 06:01:45;;;;;;;6.40;5.78;;;;;;;;;;5113637;28;20027;-75
2023/06/11 06:04:12;;;;;;;7.63;6.82;;;;;;;;;;5113797;28;20388;-76
2023/06/11 06:06:39;;;;;;;8.30;6.28;;;;;;;;;;5102153;28;20020;-75
2023/06/11 06:09:05;;;;;;;6.90;6.28;;;;;;;;;;5106607;27;20392;-76
2023/06/11 06:11:31;;;;;;;7.38;6.28;;;;;;;;;;5106425;28;20031;-77
2023/06/11 06:13:57;;;;;;;7.28;6.35;;;;;;;;;;5113370;28;20032;-76
2023/06/11 06:16:23;;;;;;;6.60;5.97;;;;;;;;;;5113310;28;20031;-76
2023/06/11 06:18:49;;;;;;;8.05;5.85;;;;;;;;;;5113900;28;20020;-75
2023/06/11 06:21:15;;;;;;;6.65;6.05;;;;;;;;;;5111076;28;20082;-75
2023/06/11 06:23:41;;;;;;;6.03;5.50;;;;;;;;;;5112983;28;20039;-75
2023/06/11 06:26:07;;;;;;;6.30;5.70;;;;;;;;;;5104331;27;20016;-72
2023/06/11 06:28:35;;;;;;;5.80;5.30;;;;;;;;;;5108074;28;20103;-78
2023/06/11 06:31:07;;;;;;;7.32;6.10;;;;;;;;;;5114407;28;20116;-76
2023/06/11 06:33:36;;;;;;;6.68;5.97;;;;;;;;;;5114054;28;20031;-78
2023/06/11 06:36:03;;;;;;;6.68;5.97;;;;;;;;;;5117120;28;20066;-75
2023/06/11 06:38:32;;;;;;;6.60;6.00;;;;;;;;;;5113975;28;20487;-78
2023/06/11 06:41:00;;;;;;;6.50;5.72;;;;;;;;;;5114784;28;20469;-74
2023/06/11 06:43:29;;;;;;;6.38;5.78;;;;;;;;;;5105595;27;20081;-76
2023/06/11 06:45:58;;;;;;;6.60;5.85;;;;;;;;;;5106050;27;20047;-76
2023/06/11 06:48:27;;;;;;;5.90;5.25;;;;;;;;;;5098025;27;20026;-76
2023/06/11 06:50:54;;;;;;;6.45;5.35;;;;;;;;;;5097637;27;20031;-78
2023/06/11 06:53:22;;;;;;;6.35;5.45;;;;;;;;;;5103512;28;20020;-76
2023/06/11 06:55:49;;;;;;;6.10;5.50;;;;;;;;;;5106578;27;20023;-75
2023/06/11 06:58:17;;;;;;;6.20;5.60;;;;;;;;;;5104872;28;20047;-75
2023/06/11 07:00:45;;;;;;;6.70;5.78;;;;;;;;;;5110531;28;20084;-80
2023/06/11 07:03:15;;;;;;;8.45;5.28;;;;;;;;;;5107322;28;20024;-78
2023/06/11 07:05:42;;;;;;;6.00;4.78;;;;;;;;;;5108991;28;20102;-76
2023/06/11 07:08:11;;;;;;;6.30;5.00;;;;;;;;;;5109535;28;20118;-74
2023/06/11 07:10:40;;;;;;;8.23;5.53;;;22.70;99.90;;;;;;5092879;28;20053;-73
2023/06/11 07:13:05;;;;;;;6.35;5.75;;;22.90;99.90;;;;;;5104793;28;20050;-73
2023/06/11 07:15:31;;;;;;;7.30;5.20;;;23.00;99.90;;;;;;5107062;28;20025;-73
2023/06/11 07:17:57;;;;;;;7.20;5.40;;;23.10;99.90;;;;;;5103258;28;20032;-73
2023/06/11 07:20:22;;;;;;;5.72;5.13;;;23.10;99.90;;;;;;5110399;28;20024;-74
2023/06/11 07:22:48;;;;;;;8.10;5.47;;;23.10;99.90;;;;;;5104929;28;20020;-74
2023/06/11 07:25:13;;;;;;;6.75;5.05;;;23.20;99.90;;;;;;5102102;28;20027;-76
2023/06/11 07:27:39;;;;;;;7.22;5.53;;;23.30;99.90;;;;;;5098527;27;20473;-74
2023/06/11 07:30:05;;;;;;;6.22;4.80;;;23.40;99.90;;;;;;5099189;27;20106;-74
2023/06/11 07:32:31;;;;;;;9.05;5.25;;;23.50;99.90;;;;;;5094083;27;20831;-77
2023/06/11 07:34:56;;;;;;;5.35;4.90;;;23.60;99.90;;;;;;5092006;27;20040;-79
2023/06/11 07:37:22;;;;;;;5.75;5.18;;;23.80;99.90;;;;;;5108078;28;20388;-76
2023/06/11 07:39:48;;;;;;;8.13;4.97;;;23.90;99.90;;;;;;5106735;28;20020;-78
2023/06/11 07:42:13;;;;;;;5.68;5.03;;;24.00;99.90;;;;;;5104258;28;20036;-78
2023/06/11 07:44:39;;;;;;;8.93;5.05;;;24.00;99.90;;;;;;5089265;28;20032;-80
2023/06/11 07:47:05;;;;;;;5.35;4.85;;;24.10;99.90;;;;;;5108204;28;20051;-78
2023/06/11 07:49:30;;;;;;;8.25;5.43;;;24.20;99.90;;;;;;5110311;28;20081;-74
2023/06/11 07:51:56;;;;;;;5.88;5.28;;;24.20;99.90;;;;;;5105581;28;20073;-72
2023/06/11 07:54:21;;;;;;;5.60;4.97;;;24.30;99.90;;;;;;5100222;27;20485;-71
2023/06/11 07:56:47;;;;;;;5.10;4.55;;;24.40;99.90;;;;;;5108757;28;20088;-72
2023/06/11 07:59:13;;;;;;;6.40;5.80;;;24.30;99.90;;;;;;5110092;28;20388;-75
2023/06/11 08:01:39;;;;;;;6.90;4.85;;;24.50;99.90;;;;;;5109343;28;20498;-74
2023/06/11 08:04:05;;;;;;;7.53;4.90;;;24.60;99.90;;;;;;5110692;28;20448;-72
2023/06/11 08:06:30;;;;;;;5.63;5.13;;;24.50;99.90;;;;;;5108833;28;20028;-76
2023/06/11 08:08:56;;;;;;;7.13;4.90;;;24.60;99.90;;;;;;5105048;28;20055;-73
2023/06/11 08:11:22;;;;;;;5.38;4.88;;;24.60;99.90;;;;;;5107973;27;20109;-73
2023/06/11 08:13:48;;;;;;;5.60;4.97;;;24.70;99.90;;;;;;5077040;28;20024;-73
2023/06/11 08:16:15;;;;;;;4.85;4.15;;;24.80;99.90;;;;;;5094956;28;20418;-76
2023/06/11 08:18:41;;;;;;;5.32;4.82;;;24.80;99.90;;;;;;5105692;28;20119;-75
2023/06/11 08:21:06;;;;;;;6.50;5.00;;;24.90;99.90;;;;;;5106680;28;20102;-69
2023/06/11 08:23:37;;;;;;;4.95;4.45;;;25.10;99.90;;;;;;5109257;28;20058;-77
2023/06/11 08:26:03;;;;;;;4.72;4.32;;;25.10;99.90;;;;;;5110111;28;20059;-71
2023/06/11 08:28:29;;;;;;;5.63;4.93;;;25.10;99.90;;;;;;5108295;28;20495;-74
2023/06/11 08:30:55;;;;;;;4.60;4.20;;;25.10;99.90;;;;;;5109509;28;20067;-72
2023/06/11 08:33:21;;;;;;;9.68;5.05;;;25.00;99.90;;;;;;5105047;28;21983;-73
2023/06/11 08:35:47;;;;;;;5.80;4.22;;;25.10;99.90;;;;;;5079803;28;20061;-73
2023/06/11 08:38:14;;;;;;;7.13;5.03;;;25.10;99.90;;;;;;5095276;28;20740;-72
2023/06/11 08:40:41;;;;;;;7.75;4.55;;;25.20;99.90;;;;;;5097200;28;20022;-72
2023/06/11 08:43:09;;;;;;;6.53;4.78;;;25.20;99.90;;;;;;5098506;28;20097;-74
2023/06/11 08:45:36;;;;;;;5.13;4.05;;;25.10;99.90;;;;;;5100381;28;20024;-71
2023/06/11 08:48:04;;;;;;;5.10;4.25;;;25.20;99.90;;;;;;5089994;28;20028;-71
2023/06/11 08:50:33;;;;;;;5.28;4.32;;;25.30;99.90;;;;;;5089002;28;20055;-72
2023/06/11 08:53:02;;;;;;;5.45;4.82;;;25.60;99.90;;;;;;5088861;28;20036;-74
2023/06/11 08:55:30;;;;;;;4.55;4.15;;;25.70;99.90;;;;;;5088722;28;20063;-72
2023/06/11 08:57:56;;;;;;;4.80;4.40;;;25.80;99.90;;;;;;5089688;28;20469;-75
2023/06/11 09:00:22;;;;;;;4.85;4.45;;;26.10;97.60;;;;;;5086023;28;20047;-73
2023/06/11 09:02:49;;;;;;;6.43;4.60;;;26.20;96.40;;;;;;5070697;28;20270;-75
2023/06/11 09:05:14;;;;;;;9.00;4.53;;;26.30;96.60;;;;;;5081027;28;20036;-75
2023/06/11 09:07:53;;;;;;;4.70;4.05;;;26.60;95.50;;;;;;5088106;28;20032;-74
2023/06/11 09:10:19;;;;;;;6.82;4.57;;;26.70;95.10;;;;;;5086723;28;20032;-73
2023/06/11 09:12:45;;;;;;;6.88;4.20;;;26.70;94.90;;;;;;5088756;28;20388;-79
2023/06/11 09:15:12;;;;;;;6.80;4.30;;;26.60;95.30;;;;;;5093101;28;20028;-74
2023/06/11 09:17:43;;;;;;;5.45;4.40;;;26.60;94.90;;;;;;5085415;28;20024;-73
2023/06/11 09:20:15;;;;;;;5.03;4.07;;;26.80;95.00;;;;;;5086140;28;20028;-67
2023/06/11 09:22:42;;;;;;;4.78;4.28;;;26.80;93.90;;;;;;5085384;28;20027;-71
2023/06/11 09:25:18;;;;;;;5.10;4.60;;;26.90;93.30;;;;;;5088517;28;20031;-72
2023/06/11 09:27:45;;;;;;;8.73;4.82;;;26.90;87.00;;;;;;5081937;28;20035;-71
2023/06/11 09:30:15;;;;;;;6.78;4.78;;;27.10;86.10;;;;;;5088657;28;20542;-73
2023/06/11 09:32:42;;;;;;;4.20;3.80;;;27.20;85.60;;;;;;5092139;28;20122;-73
2023/06/11 09:35:09;;;;;;;4.97;4.50;;;27.20;85.60;;;;;;5092310;28;20035;-76
2023/06/11 09:37:40;;;;;;;5.03;4.53;;;27.50;84.00;;;;;;5091757;28;20119;-75
2023/06/11 09:40:08;;;;;;;7.57;4.53;;;27.60;82.40;;;;;;5088561;28;20107;-77
2023/06/11 09:42:37;;;;;;;5.75;4.35;;;27.70;81.70;;;;;;5087646;28;20032;-76
2023/06/11 09:45:03;;;;;;;6.40;4.33;;;27.60;82.70;;;;;;5087018;28;20039;-81
2023/06/11 09:47:30;;;;;;;7.88;4.32;;;27.70;80.40;;;;;;5103961;28;20036;-81
2023/06/11 09:49:58;;;;;;;5.75;4.65;;;27.40;78.20;;;;;;5110849;28;20097;-77
2023/06/11 09:52:28;;;;;;;7.53;4.32;;;27.30;77.60;;;;;;5110843;28;20395;-77
2023/06/11 09:54:54;;;;;;;4.85;4.45;;;27.30;79.10;;;;;;5104503;28;20465;-76
2023/06/11 09:57:21;;;;;;;5.57;4.20;;;27.40;78.80;;;;;;5108981;28;20420;-77
2023/06/11 09:59:48;;;;;;;6.40;4.40;;;27.50;76.70;;;;;;5109156;28;20031;-79
2023/06/11 10:02:14;;;;;;;6.63;4.32;;;27.50;75.40;;;;;;5110881;28;20104;-79
2023/06/11 10:04:40;;;;;;;4.97;4.47;;;27.50;75.70;;;;;;5102946;28;20038;-77
2023/06/11 10:07:10;;;;;;;4.50;4.10;;;27.60;75.10;;;;;;5112214;28;20122;-77
2023/06/11 10:09:38;;;;;;;7.10;4.60;;;27.60;75.10;;;;;;5106111;28;20032;-78
2023/06/11 10:12:06;;;;;;;5.53;4.35;;;27.60;75.50;;;;;;5109072;28;20036;-81
2023/06/11 10:14:32;;;;;;;5.35;4.45;;;27.70;75.10;;;;;;5107337;28;20031;-79
2023/06/11 10:17:02;;;;;;;5.55;4.85;;;27.70;75.80;;;;;;5112304;28;20074;-79
2023/06/11 10:19:34;;;;;;;6.47;4.63;;;27.60;74.20;;;;;;5106865;28;20415;-79
2023/06/11 10:22:02;;;;;;;5.25;4.70;;;27.50;73.20;;;;;;5101522;28;20507;-75
2023/06/11 10:24:28;;;;;;;6.40;5.80;;;27.60;74.30;;;;;;5106665;28;20142;-79
2023/06/11 10:27:13;;;;;;;10.60;5.00;;;27.70;73.20;;;;;;5110623;28;20081;-77
2023/06/11 10:29:48;;;;;;;9.95;5.05;;;27.80;72.40;;;;;;5104769;28;20027;-85
2023/06/11 10:32:21;;;;;;;9.70;5.15;;;27.90;79.80;;;;;;5103308;28;20036;-88
2023/06/11 10:34:55;;;;;;;6.57;4.65;;;28.10;84.40;;;;;;5106975;28;20043;-80
2023/06/11 10:37:37;;;;;;;7.28;4.32;;;28.30;84.10;;;;;;5106387;28;20038;-84
2023/06/11 10:40:05;;;;;;;4.40;4.00;;;28.10;83.70;;;;;;5106790;28;20038;-76
2023/06/11 10:42:39;;;;;;;5.93;4.53;;;27.90;84.30;;;;;;5108967;28;20020;-82
2023/06/11 10:45:12;;;;;;;9.10;4.82;;;27.90;85.70;;;;;;5110058;28;20397;-76
2023/06/11 10:47:49;;;;;;;8.48;4.70;;;28.00;84.50;;;;;;5085058;28;20080;-78
2023/06/11 10:50:23;;;;;;;6.47;4.40;;;28.20;83.50;;;;;;5091992;28;20028;-78
2023/06/11 10:52:55;;;;;;;5.63;5.07;;;28.30;83.40;;;;;;5090612;28;20122;-79
2023/06/11 10:55:22;;;;;;;5.50;5.00;;;28.40;83.90;;;;;;5061965;28;20032;-77
2023/06/11 10:57:52;;;;;;;6.80;4.30;;;28.60;82.60;;;;;;5078774;28;20035;-76
2023/06/11 11:00:18;;;;;;;;;;;28.60;82.70;;;;;;5087798;28;20028;-79
2023/06/11 11:02:45;;;;;;;5.22;4.53;;;28.70;70.90;;;;;;5081464;28;19962;-86
2023/06/11 11:05:10;;;;;;;5.18;4.40;;;28.80;76.10;;;;;;5083836;28;20056;-83
2023/06/11 11:07:37;;;;;;;6.25;4.75;;;28.70;71.40;;;;;;5082964;28;20112;-82
2023/06/11 11:10:05;;;;;;;7.82;5.65;;;28.70;71.80;;;;;;5087534;28;20027;-81
2023/06/11 11:12:44;;;;;;;5.40;4.82;;;28.80;71.00;;;;;;5088408;28;20551;-80
2023/06/11 11:15:13;;;;;;;7.70;4.93;;;29.00;70.80;;;;;;5091163;28;20032;-81
2023/06/11 11:17:40;;;;;;;5.35;4.85;;;29.20;70.50;;;;;;5069550;28;20393;-79
2023/06/11 11:20:14;;;;;;;5.88;4.38;;;29.30;70.40;;;;;;5083071;28;20070;-77
2023/06/11 11:22:40;;;;;;;5.28;4.80;;;29.40;70.00;;;;;;5085418;28;20043;-82
2023/06/11 11:25:07;;;;;;;5.53;4.88;;;29.50;68.70;;;;;;5090256;28;20032;-83
2023/06/11 11:27:34;;;;;;;6.60;5.28;;;29.60;69.20;;;;;;5082894;28;20033;-77
2023/06/11 11:30:02;;;;;;;6.53;5.00;;;29.80;68.90;;;;;;5086288;28;20509;-82
2023/06/11 11:32:33;;;;;;;5.70;5.18;;;29.90;68.70;;;;;;5088664;28;20550;-79
2023/06/11 11:35:01;;;;;;;7.32;5.05;;;29.90;67.10;;;;;;5091584;28;20059;-81
2023/06/11 11:37:30;;;;;;;7.55;4.60;;;29.90;67.50;;;;;;5090990;28;20032;-81
2023/06/11 11:39:59;;;;;;;5.80;5.00;;;29.60;66.60;;;;;;5088054;28;20082;-82
2023/06/11 11:42:25;;;;;;;7.23;4.03;;;29.50;66.80;;;;;;5091627;28;20430;-82
2023/06/11 11:44:54;;;;;;;5.60;4.32;;;29.40;65.60;;;;;;5085562;28;20032;-84
2023/06/11 11:47:21;;;;;;;6.38;5.00;;;29.40;66.20;;;;;;5099565;28;20079;-85
2023/06/11 11:49:56;;;;;;;5.70;4.47;;;29.20;66.40;;;;;;5111118;28;20043;-82
2023/06/11 11:52:23;;;;;;;5.10;4.60;;;29.20;67.10;;;;;;5105691;28;20074;-82
2023/06/11 11:54:49;;;;;;;8.43;4.60;;;29.30;67.00;;;;;;5107866;28;20107;-85
2023/06/11 11:57:21;;;;;;;6.65;4.80;;;29.20;64.90;;;;;;5101299;28;20039;-81
2023/06/11 11:59:51;;;;;;;6.75;4.30;;;29.10;64.70;;;;;;5108134;28;20218;-80
2023/06/11 12:02:17;;;;;;;6.38;4.93;;;29.10;65.00;;;;;;5106403;28;20387;-81
2023/06/11 12:04:47;;;;;;;5.45;4.88;;;29.30;65.40;;;;;;5105798;28;20035;-82
2023/06/11 12:07:13;;;;;;;;;;;29.60;64.70;;;;;;5111448;28;20032;-82
2023/06/11 12:09:40;;;;;;;7.00;5.03;;;29.50;64.80;;;;;;5110354;28;19914;-82
2023/06/11 12:12:07;;;;;;;4.43;4.03;;;29.40;64.60;;;;;;5110689;28;20030;-82
2023/06/11 12:14:34;;;;;;;7.97;4.93;;;29.30;65.30;;;;;;5106114;28;20047;-82
2023/06/11 12:17:00;;;;;;;5.80;4.55;;;29.40;65.40;;;;;;5111759;28;20031;-82
2023/06/11 12:19:29;;;;;;;9.93;4.78;;;29.60;64.70;;;;;;5110732;28;20031;-82
2023/06/11 12:21:55;;;;;;;7.30;5.13;;;29.60;65.60;;;;;;5106350;28;20084;-83
2023/06/11 12:24:21;;;;;;;6.88;4.72;;;29.70;64.70;;;;;;5110913;28;20027;-82
2023/06/11 12:26:49;;;;;;;7.40;4.53;;;29.80;64.90;;;;;;5103823;28;20030;-83
2023/06/11 12:29:15;;;;;;;6.75;4.60;;;29.80;64.50;;;;;;5100513;28;20400;-85
2023/06/11 12:31:41;;;;;;;10.07;4.45;;;29.70;62.80;;;;;;5109051;28;20491;-85
2023/06/11 12:34:08;;;;;;;4.82;4.43;;;29.70;62.40;;;;;;5110848;28;20119;-83
2023/06/11 12:36:33;;;;;;;5.35;4.43;;;29.60;63.00;;;;;;5107120;28;20070;-83
2023/06/11 12:39:01;;;;;;;6.32;4.75;;;29.70;63.70;;;;;;5108323;28;20023;-86
2023/06/11 12:41:27;;;;;;;5.38;4.20;;;29.90;63.80;;;;;;5111329;28;20027;-85
2023/06/11 12:43:53;;;;;;;5.50;4.70;;;30.20;80.20;;;;;;5105637;28;20028;-86
2023/06/11 12:46:18;;;;;;;8.73;4.88;;;30.40;80.60;;;;;;5103290;28;20082;-85
2023/06/11 12:48:44;;;;;;;7.80;4.38;;;30.30;78.90;;;;;;5110123;28;20031;-86
2023/06/11 12:51:09;;;;;;;5.28;4.15;;;30.20;78.80;;;;;;5111686;28;20202;-87
2023/06/11 12:53:35;;;;;;;10.00;4.13;;;30.20;78.50;;;;;;5102185;28;20109;-86
2023/06/11 12:56:01;;;;;;;4.55;3.92;;;30.30;75.50;;;;;;5107851;28;20039;-83
2023/06/11 12:58:27;;;;;;;4.93;4.40;;;30.40;61.50;;;;;;5112006;28;20023;-83
2023/06/11 13:00:52;;;;;;;7.50;4.88;;;30.60;61.30;;;;;;5115364;28;20028;-85
2023/06/11 13:03:18;;;;;;;6.07;4.35;;;30.80;60.60;;;;;;5112599;28;20032;-84
2023/06/11 13:05:43;;;;;;;5.05;4.65;;;31.00;60.90;;;;;;5116735;28;20093;-84
2023/06/11 13:08:09;;;;;;;6.53;4.43;;;31.30;60.90;;;;;;5093054;28;20035;-85
2023/06/11 13:10:35;;;;;;;6.43;5.45;;;31.50;60.70;;;;;;5113478;28;20384;-85
2023/06/11 13:13:01;;;;;;;4.88;4.43;;;31.30;59.70;;;;;;5108812;28;20040;-85
2023/06/11 13:15:27;;;;;;;5.35;4.50;;;31.30;60.70;;;;;;5113855;28;20024;-83
2023/06/11 13:17:52;;;;;;;7.88;4.57;;;31.30;60.40;;;;;;5108928;28;20082;-86
2023/06/11 13:20:20;;;;;;;5.47;4.65;;;31.30;60.20;;;;;;5108304;28;20077;-79
2023/06/11 13:22:45;;;;;;;4.97;4.47;;;31.30;60.20;;;;;;5113432;28;20023;-81
2023/06/11 13:25:11;;;;;;;8.95;4.70;;;31.50;60.10;;;;;;5110427;28;20376;-81
2023/06/11 13:27:37;;;;;;;5.03;4.63;;;31.60;59.40;;;;;;5107683;28;20020;-81
2023/06/11 13:30:03;;;;;;;5.43;4.88;;;31.70;59.10;;;;;;5112873;28;20424;-81